createdAt,value
2017-04-23T00:00:04.966Z,72.60
2017-04-23T00:01:04.934Z,72.80
2017-04-23T00:02:04.950Z,72.90
2017-04-23T00:03:05.614Z,73.40
2017-04-23T00:04:05.517Z,73.40
2017-04-23T00:05:05.478Z,73.30
2017-04-23T00:06:06.202Z,73.40
2017-04-23T00:07:06.925Z,73.30
2017-04-23T00:08:07.613Z,73.10
2017-04-23T00:09:07.636Z,73.40
2017-04-23T00:10:07.566Z,73.60
2017-04-23T00:11:07.493Z,73.80
2017-04-23T00:12:07.452Z,73.50
2017-04-23T00:13:08.117Z,73.20
2017-04-23T00:14:08.090Z,73.40
2017-04-23T00:15:08.762Z,73.30
2017-04-23T00:16:08.727Z,73.10
2017-04-23T00:17:09.469Z,73.00
2017-04-23T00:18:09.378Z,73.50
2017-04-23T00:19:09.336Z,73.20
2017-04-23T00:20:10.113Z,73.50
2017-04-23T00:21:10.129Z,73.10
2017-04-23T00:22:10.531Z,72.80
2017-04-23T00:23:10.440Z,72.90
2017-04-23T00:24:10.340Z,72.90
2017-04-23T00:25:10.494Z,72.50
2017-04-23T00:26:10.395Z,72.40
2017-04-23T00:27:10.369Z,72.50
2017-04-23T00:28:11.152Z,72.60
2017-04-23T00:29:11.066Z,72.80
2017-04-23T00:30:12.114Z,72.40
2017-04-23T00:31:12.076Z,72.40
2017-04-23T00:32:12.038Z,72.60
2017-04-23T00:33:11.937Z,72.40
2017-04-23T00:34:11.845Z,72.90
2017-04-23T00:35:11.846Z,72.60
2017-04-23T00:36:11.803Z,73.10
2017-04-23T00:37:11.785Z,72.90
2017-04-23T00:38:11.797Z,73.20
2017-04-23T00:39:11.713Z,73.00
2017-04-23T00:40:11.692Z,73.70
2017-04-23T00:41:12.447Z,73.60
2017-04-23T00:42:12.487Z,73.10
2017-04-23T00:43:13.174Z,72.90
2017-04-23T00:44:13.098Z,73.50
2017-04-23T00:45:13.788Z,73.30
2017-04-23T00:46:13.739Z,73.00
2017-04-23T00:47:14.430Z,72.80
2017-04-23T00:49:15.290Z,72.90
2017-04-23T00:50:15.958Z,72.90
2017-04-23T00:51:15.949Z,72.90
2017-04-23T00:52:16.007Z,73.10
2017-04-23T00:53:16.154Z,73.50
2017-04-23T00:54:16.077Z,73.40
2017-04-23T00:55:16.080Z,73.70
2017-04-23T00:56:16.066Z,74.10
2017-04-23T00:57:15.992Z,74.10
2017-04-23T00:58:16.001Z,74.10
2017-04-23T00:59:15.978Z,74.20
2017-04-23T01:00:16.684Z,74.20
2017-04-23T01:01:17.377Z,74.30
2017-04-23T01:02:17.348Z,74.40
2017-04-23T01:03:17.358Z,74.50
2017-04-23T01:04:17.354Z,74.70
2017-04-23T01:05:17.309Z,74.90
2017-04-23T01:06:17.240Z,74.60
2017-04-23T01:07:18.267Z,75.20
2017-04-23T01:08:18.973Z,75.10
2017-04-23T01:09:18.986Z,75.30
2017-04-23T01:10:19.846Z,75.80
2017-04-23T01:11:20.526Z,75.60
2017-04-23T01:12:20.581Z,75.60
2017-04-23T01:13:20.627Z,75.50
2017-04-23T01:14:20.612Z,75.50
2017-04-23T01:15:20.937Z,75.90
2017-04-23T01:16:20.903Z,76.20
2017-04-23T01:17:21.552Z,76.60
2017-04-23T01:18:22.374Z,76.80
2017-04-23T01:19:22.330Z,77.00
2017-04-23T01:20:22.386Z,77.20
2017-04-23T01:21:22.419Z,77.40
2017-04-23T01:22:22.346Z,77.70
2017-04-23T01:23:22.309Z,78.00
2017-04-23T01:24:22.258Z,77.70
2017-04-23T01:25:22.175Z,78.50
2017-04-23T01:26:22.887Z,78.50
2017-04-23T01:27:22.837Z,78.40
2017-04-23T01:28:22.777Z,78.40
2017-04-23T01:29:22.706Z,78.70
2017-04-23T01:30:22.681Z,79.10
2017-04-23T01:31:22.624Z,79.10
2017-04-23T01:32:23.303Z,78.50
2017-04-23T01:33:23.242Z,79.00
2017-04-23T01:34:23.174Z,79.00
2017-04-23T01:35:23.182Z,79.00
2017-04-23T01:36:23.826Z,79.10
2017-04-23T01:37:23.791Z,79.30
2017-04-23T01:38:24.493Z,79.20
2017-04-23T01:39:24.520Z,79.40
2017-04-23T01:40:25.201Z,79.60
2017-04-23T01:41:25.105Z,79.30
2017-04-23T01:42:25.033Z,79.30
2017-04-23T01:44:25.066Z,78.80
2017-04-23T01:45:25.749Z,79.50
2017-04-23T01:46:25.664Z,78.70
2017-04-23T01:47:31.241Z,78.80
2017-04-23T01:48:31.970Z,79.50
2017-04-23T01:49:33.395Z,78.40
2017-04-23T01:50:34.077Z,78.80
2017-04-23T01:51:34.018Z,78.10
2017-04-23T01:52:33.943Z,78.40
2017-04-23T01:53:33.940Z,78.40
2017-04-23T01:54:34.649Z,78.30
2017-04-23T01:55:34.608Z,78.10
2017-04-23T01:56:34.521Z,78.10
2017-04-23T01:57:34.442Z,77.70
2017-04-23T01:58:34.349Z,77.20
2017-04-23T01:59:35.114Z,77.10
2017-04-23T02:00:35.069Z,77.20
2017-04-23T02:01:35.014Z,76.90
2017-04-23T02:02:35.750Z,77.20
2017-04-23T02:03:36.522Z,77.00
2017-04-23T02:04:37.301Z,76.70
2017-04-23T02:05:37.203Z,77.60
2017-04-23T02:06:37.841Z,76.40
2017-04-23T02:07:37.794Z,76.80
2017-04-23T02:08:37.747Z,77.10
2017-04-23T02:09:37.716Z,77.20
2017-04-23T02:10:37.673Z,77.20
2017-04-23T02:11:37.583Z,77.70
2017-04-23T02:12:37.552Z,77.50
2017-04-23T02:13:38.275Z,77.60
2017-04-23T02:14:39.006Z,78.00
2017-04-23T02:15:39.673Z,78.30
2017-04-23T02:16:39.584Z,78.00
2017-04-23T02:17:39.535Z,78.10
2017-04-23T02:18:40.234Z,78.10
2017-04-23T02:19:40.200Z,77.70
2017-04-23T02:20:40.202Z,77.80
2017-04-23T02:21:40.151Z,77.50
2017-04-23T02:22:40.154Z,77.80
2017-04-23T02:23:40.112Z,77.90
2017-04-23T02:24:40.053Z,77.80
2017-04-23T02:26:40.127Z,77.90
2017-04-23T02:27:40.036Z,78.30
2017-04-23T02:28:39.975Z,78.50
2017-04-23T02:29:39.957Z,78.20
2017-04-23T02:30:39.904Z,78.00
2017-04-23T02:31:39.804Z,77.50
2017-04-23T02:32:39.743Z,77.60
2017-04-23T02:33:45.290Z,77.30
2017-04-23T02:34:45.217Z,77.20
2017-04-23T02:35:45.190Z,77.10
2017-04-23T02:36:45.852Z,77.30
2017-04-23T02:37:45.822Z,77.20
2017-04-23T02:38:45.740Z,77.80
2017-04-23T02:39:45.665Z,77.90
2017-04-23T02:40:45.604Z,77.50
2017-04-23T02:41:45.633Z,77.40
2017-04-23T02:42:46.315Z,77.70
2017-04-23T02:43:46.240Z,78.00
2017-04-23T02:45:46.378Z,78.50
2017-04-23T02:46:46.347Z,78.70
2017-04-23T02:47:46.300Z,78.50
2017-04-23T02:48:46.213Z,78.50
2017-04-23T02:49:46.202Z,79.10
2017-04-23T02:50:46.149Z,78.80
2017-04-23T02:51:46.150Z,79.10
2017-04-23T02:52:46.338Z,79.00
2017-04-23T02:53:46.307Z,78.90
2017-04-23T02:54:46.994Z,78.90
2017-04-23T02:55:46.956Z,78.80
2017-04-23T02:56:46.945Z,79.20
2017-04-23T02:57:46.850Z,79.40
2017-04-23T02:58:46.754Z,79.50
2017-04-23T02:59:46.697Z,79.50
2017-04-23T03:00:46.670Z,79.60
2017-04-23T03:01:47.362Z,79.90
2017-04-23T03:02:48.025Z,80.00
2017-04-23T03:03:48.762Z,80.10
2017-04-23T03:04:48.720Z,80.10
2017-04-23T03:05:48.650Z,80.80
2017-04-23T03:06:49.337Z,79.90
2017-04-23T03:07:49.269Z,79.90
2017-04-23T03:08:49.240Z,79.90
2017-04-23T03:09:49.134Z,79.90
2017-04-23T03:10:49.470Z,80.10
2017-04-23T03:11:50.247Z,80.20
2017-04-23T03:12:50.229Z,80.00
2017-04-23T03:13:50.227Z,80.00
2017-04-23T03:14:50.297Z,80.00
2017-04-23T03:15:50.235Z,80.00
2017-04-23T03:16:50.227Z,80.00
2017-04-23T03:17:50.201Z,79.80
2017-04-23T03:18:50.181Z,79.70
2017-04-23T03:19:50.848Z,80.00
2017-04-23T03:20:50.812Z,79.90
2017-04-23T03:21:51.529Z,79.50
2017-04-23T03:22:52.196Z,79.60
2017-04-23T03:23:52.156Z,79.60
2017-04-23T03:24:52.880Z,79.50
2017-04-23T03:25:52.789Z,79.70
2017-04-23T03:26:53.476Z,80.00
2017-04-23T03:27:53.486Z,80.20
2017-04-23T03:28:53.418Z,80.40
2017-04-23T03:29:54.074Z,81.50
2017-04-23T03:30:54.014Z,80.70
2017-04-23T03:31:54.008Z,80.80
2017-04-23T03:32:53.915Z,80.80
2017-04-23T03:33:53.894Z,80.70
2017-04-23T03:34:53.872Z,80.60
2017-04-23T03:35:54.500Z,80.80
2017-04-23T03:36:54.462Z,80.80
2017-04-23T03:37:54.373Z,80.70
2017-04-23T03:38:55.108Z,80.60
2017-04-23T03:39:55.013Z,80.70
2017-04-23T03:40:55.680Z,80.70
2017-04-23T03:41:55.605Z,80.30
2017-04-23T03:42:55.559Z,80.80
2017-04-23T03:43:55.609Z,80.90
2017-04-23T03:44:55.500Z,81.10
2017-04-23T03:45:55.451Z,81.30
2017-04-23T03:46:55.406Z,81.20
2017-04-23T03:47:55.362Z,81.30
2017-04-23T03:48:55.275Z,81.20
2017-04-23T03:49:55.963Z,81.20
2017-04-23T03:50:55.870Z,81.00
2017-04-23T03:51:55.753Z,80.80
2017-04-23T03:52:55.681Z,81.00
2017-04-23T03:53:55.625Z,81.10
2017-04-23T03:54:56.311Z,81.10
2017-04-23T03:55:56.269Z,81.10
2017-04-23T03:56:56.184Z,80.60
2017-04-23T03:57:56.118Z,81.20
2017-04-23T03:58:56.014Z,81.10
2017-04-23T03:59:55.896Z,81.20
2017-04-23T04:00:55.797Z,81.20
2017-04-23T04:01:55.704Z,81.10
2017-04-23T04:02:55.629Z,81.00
2017-04-23T04:03:55.521Z,80.60
2017-04-23T04:04:55.419Z,80.60
2017-04-23T04:05:55.306Z,81.00
2017-04-23T04:06:55.273Z,80.90
2017-04-23T04:07:55.202Z,81.00
2017-04-23T04:08:55.849Z,80.30
2017-04-23T04:09:55.729Z,80.70
2017-04-23T04:10:56.349Z,80.70
2017-04-23T04:11:56.233Z,80.90
2017-04-23T04:12:56.146Z,81.40
2017-04-23T04:13:56.780Z,81.60
2017-04-23T04:14:57.567Z,81.60
2017-04-23T04:15:57.457Z,81.00
2017-04-23T04:17:00.177Z,81.00
2017-04-23T04:18:00.881Z,81.20
2017-04-23T04:19:00.777Z,81.60
2017-04-23T04:20:00.672Z,81.70
2017-04-23T04:21:00.604Z,81.30
2017-04-23T04:22:01.223Z,82.70
2017-04-23T04:23:01.112Z,81.20
2017-04-23T04:24:00.989Z,81.00
2017-04-23T04:25:00.892Z,81.30
2017-04-23T04:26:00.801Z,81.00
2017-04-23T04:27:00.744Z,81.00
2017-04-23T04:28:00.633Z,80.90
2017-04-23T04:29:00.532Z,81.00
2017-04-23T04:30:00.470Z,80.70
2017-04-23T04:31:00.387Z,81.00
2017-04-23T04:32:00.278Z,81.00
2017-04-23T04:33:00.950Z,81.00
2017-04-23T04:34:00.852Z,80.80
2017-04-23T04:35:01.159Z,80.90
2017-04-23T04:36:01.029Z,80.40
2017-04-23T04:37:01.025Z,80.50
2017-04-23T04:38:01.689Z,80.50
2017-04-23T04:39:01.584Z,80.30
2017-04-23T04:40:01.575Z,80.10
2017-04-23T04:41:02.206Z,80.10
2017-04-23T04:42:02.122Z,80.60
2017-04-23T04:43:02.029Z,80.60
2017-04-23T04:44:01.898Z,80.60
2017-04-23T04:45:02.529Z,80.60
2017-04-23T04:46:02.398Z,80.30
2017-04-23T04:47:02.294Z,81.30
2017-04-23T04:48:02.218Z,80.50
2017-04-23T04:49:02.881Z,80.30
2017-04-23T04:50:02.777Z,80.20
2017-04-23T04:51:02.653Z,80.00
2017-04-23T04:52:03.292Z,80.00
2017-04-23T04:53:03.227Z,81.10
2017-04-23T04:54:03.139Z,80.30
2017-04-23T04:55:03.782Z,80.40
2017-04-23T04:56:03.675Z,79.90
2017-04-23T04:57:03.583Z,79.70
2017-04-23T04:58:03.519Z,79.90
2017-04-23T04:59:04.184Z,79.60
2017-04-23T05:00:04.107Z,80.10
2017-04-23T05:01:04.004Z,79.90
2017-04-23T05:02:03.892Z,80.00
2017-04-23T05:03:03.797Z,79.90
2017-04-23T05:04:03.718Z,79.20
2017-04-23T05:05:03.729Z,79.20
2017-04-23T05:06:03.633Z,79.20
2017-04-23T05:07:03.536Z,78.80
2017-04-23T05:08:03.420Z,78.70
2017-04-23T05:09:03.418Z,78.90
2017-04-23T05:10:03.345Z,79.10
2017-04-23T05:11:03.322Z,79.30
2017-04-23T05:12:03.209Z,78.80
2017-04-23T05:13:03.896Z,78.80
2017-04-23T05:14:03.821Z,78.60
2017-04-23T05:15:03.705Z,78.50
2017-04-23T05:16:03.796Z,78.30
2017-04-23T05:17:03.869Z,78.20
2017-04-23T05:18:04.821Z,77.80
2017-04-23T05:19:04.712Z,78.00
2017-04-23T05:20:04.646Z,78.00
2017-04-23T05:21:04.584Z,78.20
2017-04-23T05:22:04.478Z,78.20
2017-04-23T05:23:04.341Z,78.20
2017-04-23T05:24:04.250Z,78.30
2017-04-23T05:25:04.128Z,78.00
2017-04-23T05:26:04.006Z,77.90
2017-04-23T05:27:04.651Z,77.90
2017-04-23T05:28:04.521Z,77.80
2017-04-23T05:29:04.456Z,77.50
2017-04-23T05:30:05.076Z,77.30
2017-04-23T05:31:05.693Z,77.20
2017-04-23T05:32:06.320Z,76.80
2017-04-23T05:33:06.185Z,76.30
2017-04-23T05:34:06.090Z,76.50
2017-04-23T05:35:05.988Z,76.40
2017-04-23T05:36:05.859Z,75.90
2017-04-23T05:37:05.729Z,75.60
2017-04-23T05:38:06.380Z,75.50
2017-04-23T05:39:06.293Z,75.00
2017-04-23T05:40:06.197Z,74.70
2017-04-23T05:41:06.088Z,74.20
2017-04-23T05:42:05.982Z,73.80
2017-04-23T05:43:05.865Z,73.00
2017-04-23T05:44:06.580Z,72.80
2017-04-23T05:45:06.615Z,72.70
2017-04-23T05:46:07.218Z,72.60
2017-04-23T05:47:07.844Z,72.80
2017-04-23T05:48:08.510Z,72.30
2017-04-23T05:49:08.430Z,72.20
2017-04-23T05:50:08.304Z,72.00
2017-04-23T05:51:08.181Z,71.90
2017-04-23T05:52:08.793Z,72.50
2017-04-23T05:53:09.412Z,72.30
2017-04-23T05:54:10.073Z,72.30
2017-04-23T05:55:09.982Z,71.90
2017-04-23T05:56:09.852Z,72.50
2017-04-23T05:57:10.486Z,71.90
2017-04-23T05:58:10.384Z,73.00
2017-04-23T05:59:11.034Z,72.10
2017-04-23T06:00:10.901Z,72.00
2017-04-23T06:01:11.613Z,72.70
2017-04-23T06:02:11.477Z,72.10
2017-04-23T06:03:11.357Z,72.00
2017-04-23T06:04:11.310Z,71.80
2017-04-23T06:05:11.205Z,71.50
2017-04-23T06:06:11.092Z,71.50
2017-04-23T06:07:11.007Z,71.10
2017-04-23T06:08:10.893Z,70.90
2017-04-23T06:09:10.785Z,71.10
2017-04-23T06:10:10.690Z,71.50
2017-04-23T06:11:10.645Z,70.60
2017-04-23T06:12:10.543Z,70.20
2017-04-23T06:13:10.433Z,69.90
2017-04-23T06:14:10.305Z,68.90
2017-04-23T06:15:10.253Z,68.50
2017-04-23T06:16:10.175Z,67.90
2017-04-23T06:17:10.054Z,68.10
2017-04-23T06:18:09.930Z,67.20
2017-04-23T06:19:09.801Z,67.40
2017-04-23T06:20:10.443Z,68.30
2017-04-23T06:21:10.349Z,68.10
2017-04-23T06:22:10.337Z,68.30
2017-04-23T06:23:10.225Z,68.50
2017-04-23T06:24:10.893Z,69.00
2017-04-23T06:25:10.832Z,69.40
2017-04-23T06:26:10.713Z,70.30
2017-04-23T06:27:10.601Z,69.20
2017-04-23T06:28:10.512Z,68.90
2017-04-23T06:29:10.443Z,68.50
2017-04-23T06:30:10.354Z,68.40
2017-04-23T06:31:11.315Z,68.70
2017-04-23T06:32:11.186Z,68.70
2017-04-23T06:33:11.169Z,69.00
2017-04-23T06:34:11.115Z,68.30
2017-04-23T06:35:11.096Z,68.20
2017-04-23T06:36:11.533Z,68.00
2017-04-23T06:37:11.462Z,67.30
2017-04-23T06:38:12.163Z,67.50
2017-04-23T06:39:12.061Z,67.20
2017-04-23T06:40:12.027Z,66.40
2017-04-23T06:41:11.934Z,65.70
2017-04-23T06:42:11.806Z,65.10
2017-04-23T06:43:11.685Z,65.40
2017-04-23T06:44:11.585Z,64.60
2017-04-23T06:45:11.477Z,65.10
2017-04-23T06:46:11.381Z,65.10
2017-04-23T06:47:11.261Z,65.30
2017-04-23T06:48:11.229Z,65.60
2017-04-23T06:49:11.897Z,65.10
2017-04-23T06:50:11.800Z,65.00
2017-04-23T06:51:11.716Z,64.70
2017-04-23T06:52:11.613Z,64.50
2017-04-23T06:53:11.485Z,64.80
2017-04-23T06:54:11.402Z,65.50
2017-04-23T06:55:11.297Z,65.90
2017-04-23T06:56:11.197Z,66.00
2017-04-23T06:57:11.095Z,66.40
2017-04-23T06:58:11.383Z,65.80
2017-04-23T06:59:11.431Z,66.00
2017-04-23T07:00:11.351Z,66.10
2017-04-23T07:01:11.372Z,66.30
2017-04-23T07:02:11.329Z,66.20
2017-04-23T07:03:12.013Z,66.30
2017-04-23T07:04:12.063Z,66.10
2017-04-23T07:05:11.981Z,66.80
2017-04-23T07:06:11.894Z,66.30
2017-04-23T07:07:11.917Z,65.90
2017-04-23T07:08:11.836Z,65.60
2017-04-23T07:09:11.783Z,65.80
2017-04-23T07:10:12.424Z,66.00
2017-04-23T07:11:12.355Z,64.40
2017-04-23T07:12:12.289Z,64.20
2017-04-23T07:13:12.922Z,65.00
2017-04-23T07:14:13.778Z,64.00
2017-04-23T07:15:14.964Z,63.10
2017-04-23T07:16:14.981Z,62.90
2017-04-23T07:17:15.062Z,62.60
2017-04-23T07:18:14.974Z,60.80
2017-04-23T07:19:14.881Z,61.20
2017-04-23T07:20:14.868Z,61.20
2017-04-23T07:21:14.886Z,61.00
2017-04-23T07:22:14.778Z,61.00
2017-04-23T07:23:14.701Z,60.30
2017-04-23T07:24:14.629Z,61.10
2017-04-23T07:25:15.527Z,60.80
2017-04-23T07:26:15.434Z,59.10
2017-04-23T07:27:15.335Z,58.20
2017-04-23T07:28:15.230Z,57.80
2017-04-23T07:29:15.121Z,56.90
2017-04-23T07:30:15.025Z,56.30
2017-04-23T07:31:15.209Z,56.10
2017-04-23T07:32:15.474Z,55.60
2017-04-23T07:33:15.736Z,54.70
2017-04-23T07:34:16.218Z,54.10
2017-04-23T07:35:17.989Z,53.30
2017-04-23T07:36:18.957Z,53.00
2017-04-23T07:37:18.829Z,52.90
2017-04-23T07:38:18.725Z,52.90
2017-04-23T07:39:19.408Z,52.80
2017-04-23T07:40:19.732Z,52.10
2017-04-23T07:41:20.065Z,52.00
2017-04-23T07:42:19.995Z,51.90
2017-04-23T07:43:19.921Z,51.40
2017-04-23T07:44:19.801Z,51.40
2017-04-23T07:45:19.742Z,52.10
2017-04-23T07:46:19.636Z,52.00
2017-04-23T07:47:19.734Z,53.50
2017-04-23T07:48:19.643Z,53.30
2017-04-23T07:49:19.592Z,53.10
2017-04-23T07:50:19.530Z,51.90
2017-04-23T07:51:19.500Z,50.80
2017-04-23T07:52:19.405Z,49.60
2017-04-23T07:53:19.298Z,49.00
2017-04-23T07:54:19.221Z,49.50
2017-04-23T07:55:19.932Z,48.90
2017-04-23T07:56:19.850Z,48.40
2017-04-23T07:57:19.749Z,47.30
2017-04-23T07:58:20.398Z,45.90
2017-04-23T07:59:21.057Z,45.90
2017-04-23T08:00:21.153Z,46.30
2017-04-23T08:01:21.129Z,46.50
2017-04-23T08:02:21.794Z,47.40
2017-04-23T08:03:21.797Z,47.80
2017-04-23T08:04:21.694Z,48.10
2017-04-23T08:05:21.637Z,48.60
2017-04-23T08:06:21.506Z,48.70
2017-04-23T08:07:21.404Z,49.00
2017-04-23T08:08:21.334Z,49.20
2017-04-23T08:09:22.002Z,48.50
2017-04-23T08:10:22.688Z,47.90
2017-04-23T08:11:22.627Z,47.50
2017-04-23T08:12:23.356Z,46.60
2017-04-23T08:13:23.220Z,45.90
2017-04-23T08:14:23.227Z,45.30
2017-04-23T08:15:23.166Z,44.50
2017-04-23T08:16:23.101Z,44.40
2017-04-23T08:17:23.460Z,43.60
2017-04-23T08:18:24.381Z,42.80
2017-04-23T08:19:24.353Z,40.90
2017-04-23T08:20:24.291Z,40.30
2017-04-23T08:21:24.215Z,40.30
2017-04-23T08:22:24.100Z,39.40
2017-04-23T08:23:24.004Z,39.30
2017-04-23T08:24:23.941Z,39.20
2017-04-23T08:25:24.616Z,38.60
2017-04-23T08:26:24.539Z,38.80
2017-04-23T08:27:24.472Z,38.50
2017-04-23T08:28:25.168Z,38.70
2017-04-23T08:29:25.111Z,38.80
2017-04-23T08:30:25.740Z,38.30
2017-04-23T08:31:25.701Z,38.30
2017-04-23T08:32:25.595Z,38.30
2017-04-23T08:33:25.536Z,38.50
2017-04-23T08:34:26.293Z,38.70
2017-04-23T08:35:26.186Z,39.60
2017-04-23T08:36:26.116Z,39.50
2017-04-23T08:37:26.034Z,39.20
2017-04-23T08:38:25.925Z,39.40
2017-04-23T08:39:25.833Z,39.50
2017-04-23T08:40:25.751Z,39.90
2017-04-23T08:41:25.708Z,40.30
2017-04-23T08:42:25.714Z,42.10
2017-04-23T08:43:25.602Z,41.50
2017-04-23T08:44:26.272Z,42.50
2017-04-23T08:45:26.291Z,43.70
2017-04-23T08:46:26.297Z,44.10
2017-04-23T08:47:26.218Z,43.90
2017-04-23T08:48:26.113Z,42.50
2017-04-23T08:49:25.985Z,42.00
2017-04-23T08:50:25.927Z,41.10
2017-04-23T08:51:25.817Z,40.70
2017-04-23T08:52:25.745Z,41.00
2017-04-23T08:53:25.639Z,40.70
2017-04-23T08:54:25.528Z,41.00
2017-04-23T08:55:25.429Z,42.20
2017-04-23T08:56:25.329Z,43.20
2017-04-23T08:57:25.218Z,43.50
2017-04-23T08:58:25.100Z,43.50
2017-04-23T08:59:25.008Z,42.40
2017-04-23T09:00:24.911Z,41.60
2017-04-23T09:01:25.910Z,40.60
2017-04-23T09:02:25.757Z,41.50
2017-04-23T09:03:25.649Z,41.80
2017-04-23T09:04:25.542Z,41.90
2017-04-23T09:05:26.212Z,42.50
2017-04-23T09:06:26.157Z,42.50
2017-04-23T09:07:26.820Z,43.50
2017-04-23T09:08:26.729Z,42.70
2017-04-23T09:09:26.632Z,42.80
2017-04-23T09:10:26.576Z,42.70
2017-04-23T09:11:26.480Z,42.30
2017-04-23T09:12:26.355Z,41.70
2017-04-23T09:13:26.317Z,41.10
2017-04-23T09:14:26.198Z,41.00
2017-04-23T09:15:26.138Z,40.50
2017-04-23T09:16:26.750Z,39.50
2017-04-23T09:17:27.401Z,38.70
2017-04-23T09:18:27.348Z,38.30
2017-04-23T09:19:27.242Z,37.40
2017-04-23T09:20:27.153Z,36.70
2017-04-23T09:21:27.105Z,35.50
2017-04-23T09:22:27.722Z,34.50
2017-04-23T09:23:27.674Z,35.30
2017-04-23T09:24:27.587Z,36.80
2017-04-23T09:25:27.514Z,37.10
2017-04-23T09:26:28.733Z,37.70
2017-04-23T09:27:28.648Z,37.90
2017-04-23T09:28:28.793Z,38.20
2017-04-23T09:29:29.408Z,37.90
2017-04-23T09:30:29.334Z,38.00
2017-04-23T09:31:29.267Z,37.00
2017-04-23T09:32:29.177Z,35.20
2017-04-23T09:33:29.103Z,34.50
2017-04-23T09:34:29.726Z,34.40
2017-04-23T09:35:30.345Z,35.30
2017-04-23T09:36:31.309Z,36.10
2017-04-23T09:37:31.237Z,36.80
2017-04-23T09:38:31.135Z,37.40
2017-04-23T09:39:31.057Z,38.00
2017-04-23T09:40:30.990Z,38.30
2017-04-23T09:41:31.023Z,38.50
2017-04-23T09:42:31.674Z,39.50
2017-04-23T09:43:31.617Z,39.40
2017-04-23T09:44:31.569Z,40.10
2017-04-23T09:45:31.516Z,40.70
2017-04-23T09:46:31.454Z,40.40
2017-04-23T09:47:31.371Z,40.80
2017-04-23T09:48:31.262Z,41.20
2017-04-23T09:49:31.943Z,41.10
2017-04-23T09:50:32.654Z,41.10
2017-04-23T09:51:32.557Z,41.30
2017-04-23T09:52:32.510Z,42.00
2017-04-23T09:53:33.149Z,43.00
2017-04-23T09:54:33.042Z,43.70
2017-04-23T09:55:32.942Z,44.00
2017-04-23T09:56:33.593Z,44.90
2017-04-23T09:57:33.816Z,45.00
2017-04-23T09:58:33.710Z,44.80
2017-04-23T09:59:33.613Z,44.90
2017-04-23T10:00:33.517Z,44.70
2017-04-23T10:01:33.500Z,44.60
2017-04-23T10:02:34.177Z,44.20
2017-04-23T10:03:34.107Z,44.00
2017-04-23T10:04:34.048Z,43.80
2017-04-23T10:05:34.686Z,43.30
2017-04-23T10:06:34.605Z,43.00
2017-04-23T10:07:34.540Z,42.80
2017-04-23T10:08:34.415Z,42.40
2017-04-23T10:09:34.300Z,42.60
2017-04-23T10:10:34.232Z,42.60
2017-04-23T10:11:34.161Z,42.40
2017-04-23T10:12:34.790Z,42.40
2017-04-23T10:13:34.834Z,42.20
2017-04-23T10:14:34.696Z,42.70
2017-04-23T10:15:34.615Z,42.70
2017-04-23T10:16:35.244Z,42.50
2017-04-23T10:17:35.931Z,42.70
2017-04-23T10:18:35.855Z,42.70
2017-04-23T10:19:35.896Z,43.20
2017-04-23T10:20:35.789Z,43.90
2017-04-23T10:21:35.701Z,44.00
2017-04-23T10:22:35.598Z,44.20
2017-04-23T10:23:35.479Z,45.50
2017-04-23T10:24:36.122Z,45.40
2017-04-23T10:25:36.778Z,46.00
2017-04-23T10:26:36.670Z,46.70
2017-04-23T10:27:36.554Z,47.50
2017-04-23T10:28:36.442Z,47.60
2017-04-23T10:29:37.062Z,48.00
2017-04-23T10:30:36.946Z,48.70
2017-04-23T10:31:36.848Z,49.00
2017-04-23T10:32:36.772Z,49.00
2017-04-23T10:33:36.785Z,49.00
2017-04-23T10:34:37.495Z,48.80
2017-04-23T10:35:37.400Z,48.40
2017-04-23T10:36:38.052Z,47.90
2017-04-23T10:37:37.944Z,48.10
2017-04-23T10:38:38.601Z,48.30
2017-04-23T10:39:38.470Z,47.70
2017-04-23T10:40:39.137Z,47.10
2017-04-23T10:41:39.020Z,47.00
2017-04-23T10:42:38.918Z,46.80
2017-04-23T10:43:38.828Z,46.80
2017-04-23T10:44:38.727Z,46.00
2017-04-23T10:45:38.657Z,45.90
2017-04-23T10:46:38.558Z,45.20
2017-04-23T10:47:38.473Z,44.10
2017-04-23T10:48:38.482Z,43.80
2017-04-23T10:49:38.389Z,43.50
2017-04-23T10:50:38.391Z,43.10
2017-04-23T10:51:39.042Z,42.90
2017-04-23T10:52:38.954Z,42.80
2017-04-23T10:53:39.591Z,43.90
2017-04-23T10:54:39.563Z,44.00
2017-04-23T10:55:39.477Z,44.50
2017-04-23T10:56:39.453Z,44.50
2017-04-23T10:57:39.388Z,44.00
2017-04-23T10:58:39.308Z,43.00
2017-04-23T10:59:39.942Z,42.40
2017-04-23T11:00:39.869Z,41.80
2017-04-23T11:01:39.851Z,41.60
2017-04-23T11:02:40.493Z,39.90
2017-04-23T11:03:40.412Z,39.00
2017-04-23T11:04:40.431Z,38.50
2017-04-23T11:05:40.410Z,38.40
2017-04-23T11:06:40.390Z,38.00
2017-04-23T11:07:40.317Z,37.90
2017-04-23T11:08:40.204Z,37.80
2017-04-23T11:09:40.093Z,38.00
2017-04-23T11:10:40.720Z,37.70
2017-04-23T11:11:41.348Z,37.60
2017-04-23T11:12:41.290Z,37.80
2017-04-23T11:13:41.183Z,38.10
2017-04-23T11:14:41.077Z,38.30
2017-04-23T11:15:40.995Z,38.70
2017-04-23T11:16:40.870Z,38.80
2017-04-23T11:17:40.793Z,38.40
2017-04-23T11:18:40.697Z,37.30
2017-04-23T11:19:40.573Z,36.80
2017-04-23T11:20:40.455Z,37.10
2017-04-23T11:21:40.373Z,37.30
2017-04-23T11:22:41.025Z,37.60
2017-04-23T11:23:40.952Z,37.40
2017-04-23T11:24:40.852Z,37.50
2017-04-23T11:25:40.882Z,38.10
2017-04-23T11:26:40.780Z,39.10
2017-04-23T11:27:41.418Z,39.40
2017-04-23T11:28:41.323Z,39.70
2017-04-23T11:29:41.240Z,40.00
2017-04-23T11:30:41.147Z,40.20
2017-04-23T11:31:41.789Z,40.60
2017-04-23T11:32:41.697Z,41.40
2017-04-23T11:33:41.608Z,40.50
2017-04-23T11:34:41.494Z,40.60
2017-04-23T11:35:42.112Z,39.80
2017-04-23T11:36:42.029Z,40.30
2017-04-23T11:37:42.650Z,39.60
2017-04-23T11:38:42.994Z,40.90
2017-04-23T11:39:42.882Z,40.10
2017-04-23T11:40:42.821Z,38.80
2017-04-23T11:41:42.737Z,37.90
2017-04-23T11:42:42.671Z,37.00
2017-04-23T11:43:43.346Z,37.20
2017-04-23T11:44:43.290Z,37.20
2017-04-23T11:45:43.161Z,37.10
2017-04-23T11:46:43.051Z,38.10
2017-04-23T11:47:42.934Z,38.80
2017-04-23T11:48:42.905Z,39.70
2017-04-23T11:49:42.794Z,40.20
2017-04-23T11:50:42.673Z,40.50
2017-04-23T11:51:43.337Z,41.90
2017-04-23T11:52:43.995Z,42.90
2017-04-23T11:53:43.909Z,42.90
2017-04-23T11:54:43.808Z,43.80
2017-04-23T11:55:43.701Z,44.50
2017-04-23T11:56:43.604Z,45.30
2017-04-23T11:57:43.543Z,45.70
2017-04-23T11:58:43.506Z,46.10
2017-04-23T11:59:43.426Z,46.30
2017-04-23T12:00:43.343Z,46.60
2017-04-23T12:01:43.253Z,46.80
2017-04-23T12:02:43.157Z,47.40
2017-04-23T12:03:43.074Z,47.10
2017-04-23T12:04:42.985Z,47.50
2017-04-23T12:06:42.954Z,48.40
2017-04-23T12:07:42.862Z,50.00
2017-04-23T12:08:42.800Z,51.70
2017-04-23T12:09:42.709Z,53.50
2017-04-23T12:10:42.619Z,55.40
2017-04-23T12:11:42.521Z,57.90
2017-04-23T12:12:42.476Z,60.80
2017-04-23T12:13:42.405Z,63.50
2017-04-23T12:14:42.354Z,63.30
2017-04-23T12:15:42.292Z,66.00
2017-04-23T12:16:42.204Z,67.90
2017-04-23T12:17:42.201Z,69.00
2017-04-23T12:18:42.861Z,68.70
2017-04-23T12:19:42.799Z,68.90
2017-04-23T12:20:42.779Z,68.40
2017-04-23T12:21:42.686Z,70.20
2017-04-23T12:22:42.580Z,68.70
2017-04-23T12:23:42.458Z,69.00
2017-04-23T12:24:42.373Z,70.20
2017-04-23T12:25:42.356Z,69.80
2017-04-23T12:26:42.961Z,69.70
2017-04-23T12:27:42.855Z,68.20
2017-04-23T12:28:42.732Z,67.90
2017-04-23T12:29:42.685Z,67.50
2017-04-23T12:30:42.573Z,67.50
2017-04-23T12:31:43.211Z,65.90
2017-04-23T12:32:43.177Z,63.10
2017-04-23T12:33:43.094Z,61.70
2017-04-23T12:34:43.100Z,59.20
2017-04-23T12:35:42.989Z,56.60
2017-04-23T12:36:42.899Z,53.00
2017-04-23T12:37:42.762Z,49.80
2017-04-23T12:38:42.667Z,48.30
2017-04-23T12:39:42.604Z,45.20
2017-04-23T12:40:42.534Z,47.80
2017-04-23T12:41:42.450Z,46.60
2017-04-23T12:42:42.375Z,47.10
2017-04-23T12:43:43.014Z,46.80
2017-04-23T12:44:42.918Z,47.30
2017-04-23T12:45:42.841Z,48.30
2017-04-23T12:46:42.924Z,49.30
2017-04-23T12:47:42.862Z,50.30
2017-04-23T12:48:42.774Z,51.20
2017-04-23T12:49:42.778Z,53.00
2017-04-23T12:50:42.596Z,52.60
2017-04-23T12:51:42.481Z,52.10
2017-04-23T12:52:42.425Z,52.70
2017-04-23T12:53:42.373Z,52.60
2017-04-23T12:54:42.221Z,53.00
2017-04-23T12:55:42.102Z,53.20
2017-04-23T12:56:41.961Z,54.00
2017-04-23T12:57:41.848Z,53.90
2017-04-23T12:58:41.771Z,55.90